Time;durP1;ratioP1;P1;durP2;ratioP2;P2;SDS_P1;SDS_P2;PMS_P1;PMS_P2;Temp;Humidity;BMP_temperature;BMP_pressure;BME280_temperature;BME280_humidity;BME280_pressure;Samples;Min_cycle;Max_cycle;Signal;HPM_P1;HPM_P2
2022/01/02 00:01:43;;;;;;;19.13;11.43;;;;;;;7.50;91.63;99124.13;5003018;28;20030;-92
2022/01/02 00:04:17;;;;;;;17.80;11.77;;;;;;;6.93;91.17;99037.75;5001592;28;20022;-94
2022/01/02 00:06:50;;;;;;;21.35;12.93;;;;;;;7.07;91.87;99063.13;5018973;28;20056;-94
2022/01/02 00:09:36;;;;;;;26.02;13.40;;;;;;;7.42;91.46;99109.31;5014425;28;20467;-92
2022/01/02 00:12:13;;;;;;;17.40;12.40;;;;;;;7.57;91.44;99130.16;5009161;28;20041;-92
2022/01/02 00:14:49;;;;;;;19.48;12.45;;;;;;;6.81;91.28;99005.03;5018415;28;20033;-91
2022/01/02 00:17:22;;;;;;;17.07;11.20;;;;;;;7.10;91.73;99052.06;5018927;28;20026;-91
2022/01/02 00:19:53;;;;;;;16.65;11.70;;;;;;;6.84;92.11;99003.78;5009955;28;20103;-92
2022/01/02 00:22:22;;;;;;;18.92;12.20;;;;;;;7.28;91.12;99077.78;5018429;28;20025;-90
2022/01/02 00:24:47;;;;;;;14.82;10.32;;;;;;;7.27;91.34;99081.50;5019325;28;20037;-91
2022/01/02 00:27:15;;;;;;;21.40;10.85;;;;;;;6.94;91.38;99007.56;5016052;28;20558;-92
2022/01/02 00:29:42;;;;;;;16.17;11.77;;;;;;;7.54;91.82;99088.94;5018170;28;20030;-92
2022/01/02 00:32:10;;;;;;;21.92;12.60;;;;;;;6.82;91.24;98983.59;5012514;28;20017;-92
2022/01/02 00:34:38;;;;;;;17.70;11.35;;;;;;;7.14;91.47;99029.34;5008510;28;20041;-93
2022/01/02 00:37:07;;;;;;;18.42;12.07;;;;;;;6.96;91.54;99005.50;4993045;28;20061;-90
2022/01/02 00:39:33;;;;;;;19.65;12.35;;;;;;;6.92;91.19;99001.66;5014057;28;20025;-91
2022/01/02 00:42:07;;;;;;;17.35;11.55;;;;;;;7.60;91.02;99107.66;5033012;28;20040;-91
2022/01/02 00:44:45;;;;;;;17.63;11.48;;;;;;;7.56;91.48;99132.00;5018201;28;20049;-90
2022/01/02 00:47:33;;;;;;;16.90;11.82;;;;;;;7.08;90.85;99062.09;5017416;28;20112;-92
2022/01/02 00:50:04;;;;;;;14.85;10.95;;;;;;;7.75;90.40;99166.53;5009329;28;20026;-92
2022/01/02 00:52:39;;;;;;;17.60;11.80;;;;;;;6.58;91.43;98989.75;5018526;28;20025;-92
2022/01/02 00:55:09;;;;;;;15.37;10.93;;;;;;;7.70;90.63;99161.06;5014130;28;20101;-93
2022/01/02 00:57:37;;;;;;;20.73;11.02;;;;;;;7.47;90.96;99122.72;5005685;28;20026;-91
2022/01/02 01:00:15;;;;;;;15.75;10.52;;;;;;;7.22;90.71;99091.97;4993434;28;20115;-92
2022/01/02 01:02:45;;;;;;;13.88;11.05;;;;;;;6.50;90.79;98965.38;5017794;28;20052;-91
2022/01/02 01:05:13;;;;;;;19.35;10.90;;;;;;;6.58;90.94;98973.84;4998495;28;20475;-92
2022/01/02 01:07:39;;;;;;;17.35;11.20;;;;;;;7.17;91.27;99044.84;5017243;28;20025;-90
2022/01/02 01:10:08;;;;;;;15.00;10.68;;;;;;;7.15;90.77;99057.53;5017181;28;20031;-94
2022/01/02 01:12:33;;;;;;;15.85;9.95;;;;;;;7.19;91.28;99049.91;5011383;28;20030;-91
2022/01/02 01:15:00;;;;;;;16.02;9.63;;;;;;;6.80;91.33;98990.97;5016722;28;20372;-91
2022/01/02 01:17:26;;;;;;;15.05;10.15;;;;;;;6.89;91.51;99020.66;4999998;28;20045;-92
2022/01/02 01:19:53;;;;;;;20.95;10.23;;;;;;;7.31;91.58;99080.84;5011183;28;20033;-90
2022/01/02 01:22:24;;;;;;;15.88;10.07;;;;;;;7.04;91.28;99033.56;4999803;28;20033;-92
2022/01/02 01:24:49;;;;;;;20.08;9.85;;;;;;;6.67;91.65;98961.94;5014832;28;20116;-91
2022/01/02 01:27:15;;;;;;;13.52;9.35;;;;;;;7.45;91.53;99092.09;5014075;28;20050;-90
2022/01/02 01:29:40;;;;;;;18.05;10.07;;;;;;;7.75;91.74;99142.63;5012417;28;20029;-93
2022/01/02 01:32:08;;;;;;;15.57;9.48;;;;;;;7.31;91.70;99080.03;5015220;28;20029;-92
2022/01/02 01:34:38;;;;;;;16.02;8.93;;;;;;;7.30;92.07;99073.88;5018979;28;20368;-91
2022/01/02 01:37:04;;;;;;;15.90;9.55;;;;;;;6.90;91.87;99009.03;5014086;28;20055;-93
2022/01/02 01:39:29;;;;;;;16.77;10.82;;;;;;;7.09;91.80;99034.53;5016483;28;20026;-94
2022/01/02 01:42:04;;;;;;;15.35;9.35;;;;;;;6.90;92.23;98995.75;5015444;28;20040;-93
2022/01/02 01:44:41;;;;;;;13.07;9.65;;;;;;;7.16;92.18;99019.34;5011129;28;20022;-92
2022/01/02 01:47:09;;;;;;;17.23;9.30;;;;;;;7.14;91.44;99008.13;5026318;28;20025;-94
2022/01/02 01:49:34;;;;;;;16.27;9.68;;;;;;;7.81;92.04;99105.34;4992608;28;20411;-92
2022/01/02 01:52:00;;;;;;;13.02;8.45;;;;;;;7.25;91.69;99004.72;5014191;28;20022;-93
2022/01/02 01:54:25;;;;;;;13.88;8.52;;;;;;;7.17;91.55;98994.41;5010527;28;20604;-93
2022/01/02 01:56:52;;;;;;;12.50;8.77;;;;;;;6.96;91.75;98960.38;5002409;28;20029;-93
2022/01/02 01:59:20;;;;;;;16.00;9.95;;;;;;;7.41;92.05;99020.03;4999647;28;20068;-93
2022/01/02 02:01:46;;;;;;;13.85;9.77;;;;;;;6.69;91.84;98900.69;5008764;28;20033;-92
2022/01/02 02:04:12;;;;;;;11.80;7.82;;;;;;;6.66;92.17;98894.00;5014600;28;20029;-90
2022/01/02 02:06:37;;;;;;;16.73;10.07;;;;;;;6.65;91.78;98897.69;5006922;28;20029;-93
2022/01/02 02:09:05;;;;;;;11.60;9.15;;;;;;;6.93;91.82;98936.94;5013197;28;20534;-92
2022/01/02 02:11:30;;;;;;;13.50;9.73;;;;;;;7.06;91.46;98942.06;5031613;28;20071;-92
2022/01/02 02:13:56;;;;;;;15.27;8.70;;;;;;;6.55;91.46;98857.59;5019309;28;20441;-94
2022/01/02 02:16:22;;;;;;;14.88;8.95;;;;;;;7.75;91.78;99039.03;5016191;28;20034;-92
2022/01/02 02:18:48;;;;;;;10.82;8.07;;;;;;;7.70;91.63;99055.63;5013901;28;20079;-93
2022/01/02 02:21:13;;;;;;;10.73;8.23;;;;;;;7.04;91.31;98945.97;5015691;28;20116;-90
2022/01/02 02:23:38;;;;;;;13.05;9.00;;;;;;;6.91;91.83;98933.69;5015560;28;20025;-90
2022/01/02 02:26:04;;;;;;;12.82;8.68;;;;;;;7.47;92.19;99035.06;5012663;28;20029;-91
2022/01/02 02:28:30;;;;;;;12.38;7.40;;;;;;;6.50;91.28;98883.19;5010314;28;20013;-92
2022/01/02 02:30:56;;;;;;;12.45;8.23;;;;;;;6.77;91.18;98948.94;5015745;28;20029;-92
2022/01/02 02:33:23;;;;;;;15.13;8.30;;;;;;;6.89;91.20;98964.94;5016437;28;20029;-91
2022/01/02 02:35:49;;;;;;;14.90;8.65;;;;;;;6.92;91.08;98940.63;5000126;28;20501;-91
2022/01/02 02:38:16;;;;;;;14.00;7.60;;;;;;;7.34;91.66;99013.19;5015389;28;20108;-93
2022/01/02 02:40:42;;;;;;;12.02;8.18;;;;;;;6.72;91.79;98924.13;5015222;28;20052;-90
2022/01/02 02:43:30;;;;;;;12.15;7.80;;;;;;;7.23;91.60;99017.41;5015138;28;20022;-91
2022/01/02 02:51:48;;;;;;;13.15;8.00;;;;;;;6.43;91.42;98915.06;5014010;28;20041;-93
2022/01/02 02:54:22;;;;;;;12.07;8.32;;;;;;;6.38;91.69;98884.94;5009734;28;20055;-90
2022/01/02 02:59:21;;;;;;;11.30;7.50;;;;;;;7.56;91.81;99086.84;5030093;28;20018;-90
2022/01/02 03:01:49;;;;;;;15.85;8.23;;;;;;;6.53;91.82;98920.66;5017474;28;20483;-93
2022/01/02 03:04:14;;;;;;;15.05;8.10;;;;;;;6.60;91.82;98928.53;5006466;28;20025;-92
2022/01/02 03:06:40;;;;;;;9.52;6.95;;;;;;;6.87;91.93;98982.13;5015007;28;20025;-92
2022/01/02 03:09:08;;;;;;;11.52;7.30;;;;;;;7.58;92.18;99100.72;5014588;28;20061;-92
2022/01/02 03:11:35;;;;;;;8.40;6.55;;;;;;;7.17;91.58;99034.22;4998289;28;20030;-93
2022/01/02 03:14:03;;;;;;;14.05;7.10;;;;;;;7.45;91.75;99070.84;5011997;28;20032;-91
2022/01/02 03:16:29;;;;;;;14.70;8.00;;;;;;;7.04;91.69;99002.53;5028156;28;20053;-92
2022/01/02 03:18:57;;;;;;;11.00;7.72;;;;;;;6.83;91.52;98971.16;4994281;28;20411;-94
2022/01/02 03:21:23;;;;;;;13.35;7.28;;;;;;;7.15;91.93;99020.38;5014247;28;20101;-94
2022/01/02 03:23:48;;;;;;;12.10;6.85;;;;;;;7.20;91.73;99007.25;5032309;28;20048;-91
2022/01/02 03:26:14;;;;;;;13.00;8.60;;;;;;;7.21;91.70;99011.50;5015120;28;20030;-92
2022/01/02 03:28:39;;;;;;;11.52;7.72;;;;;;;7.46;91.47;99046.75;5015027;28;20032;-92
2022/01/02 03:31:05;;;;;;;13.35;7.68;;;;;;;7.65;92.03;99086.53;5013775;28;20042;-93
2022/01/02 03:33:31;;;;;;;9.32;6.65;;;;;;;7.65;91.70;99073.25;5014933;28;20485;-90
2022/01/02 03:35:56;;;;;;;11.57;7.18;;;;;;;7.06;92.20;98994.34;5015377;28;20060;-92
2022/01/02 03:38:22;;;;;;;15.95;7.68;;;;;;;6.56;91.80;98906.16;5015238;28;20029;-93
2022/01/02 03:40:47;;;;;;;13.43;8.73;;;;;;;7.53;91.85;99054.63;5014651;28;20096;-91
2022/01/02 03:43:12;;;;;;;16.58;8.27;;;;;;;7.65;91.96;99079.38;5003552;28;20034;-93
2022/01/02 03:45:38;;;;;;;12.30;8.20;;;;;;;7.12;92.01;98967.72;5004883;28;20030;-92
2022/01/02 03:48:04;;;;;;;10.68;7.40;;;;;;;6.66;91.74;98898.50;4995498;28;20490;-93
2022/01/02 03:50:29;;;;;;;14.13;8.25;;;;;;;6.51;92.14;98866.25;5014652;28;20030;-92
2022/01/02 03:52:54;;;;;;;10.45;7.45;;;;;;;6.81;91.92;98907.69;5013967;28;20036;-91
2022/01/02 03:55:20;;;;;;;14.07;9.13;;;;;;;7.56;91.78;99020.47;4997807;28;20053;-91
2022/01/02 03:57:45;;;;;;;15.95;7.60;;;;;;;7.09;91.98;98946.94;5010483;28;20544;-90
2022/01/02 04:00:13;;;;;;;18.10;8.43;;;;;;;7.67;91.75;99023.38;5007505;28;20025;-91
2022/01/02 04:02:38;;;;;;;14.85;8.10;;;;;;;6.70;91.66;98875.81;5008889;28;20025;-90
2022/01/02 04:05:09;;;;;;;15.40;8.80;;;;;;;6.78;91.58;98886.09;5008677;28;20402;-92
2022/01/02 04:07:35;;;;;;;14.88;8.40;;;;;;;6.29;91.79;98802.25;5013834;28;20021;-91
2022/01/02 04:10:06;;;;;;;13.70;9.05;;;;;;;7.10;91.57;98926.53;5009119;28;20112;-92
2022/01/02 04:12:33;;;;;;;13.07;9.93;;;;;;;6.93;91.59;98873.25;5013934;28;20021;-89
2022/01/02 04:14:59;;;;;;;14.85;8.98;;;;;;;7.45;91.99;98956.66;5014431;28;20036;-94
2022/01/02 04:17:24;;;;;;;15.27;9.90;;;;;;;7.14;91.98;98909.13;5014460;28;20022;-93
2022/01/02 04:19:51;;;;;;;17.20;9.77;;;;;;;7.11;92.08;98891.81;4996723;28;20035;-91
2022/01/02 04:22:17;;;;;;;13.52;8.70;;;;;;;7.32;92.43;98928.47;5014744;28;20048;-92
2022/01/02 04:24:45;;;;;;;14.77;8.80;;;;;;;6.64;92.54;98795.28;5012885;28;20033;-92
2022/01/02 04:27:10;;;;;;;12.10;8.98;;;;;;;7.28;92.46;98881.34;5012189;28;20108;-91
2022/01/02 04:29:36;;;;;;;12.15;7.50;;;;;;;7.50;92.00;98911.66;5012195;28;20586;-91
2022/01/02 04:32:01;;;;;;;12.93;7.50;;;;;;;7.26;92.40;98880.75;5012337;28;20040;-93
2022/01/02 04:34:27;;;;;;;13.27;7.13;;;;;;;6.70;92.20;98778.50;5000430;28;20035;-91
2022/01/02 04:36:52;;;;;;;11.32;7.43;;;;;;;6.99;92.17;98840.50;5017689;28;20030;-93
2022/01/02 04:39:17;;;;;;;14.15;7.70;;;;;;;6.91;92.39;98832.88;5017469;28;20057;-92
2022/01/02 04:41:43;;;;;;;16.27;9.38;;;;;;;6.81;92.34;98822.00;5016009;28;20048;-92
2022/01/02 04:44:08;;;;;;;12.48;8.23;;;;;;;7.48;93.32;98934.97;5017590;28;20030;-91
2022/01/02 04:46:34;;;;;;;14.07;8.40;;;;;;;7.52;92.38;98938.81;5017552;28;20028;-90
2022/01/02 04:48:59;;;;;;;11.95;8.30;;;;;;;6.73;92.65;98836.38;5017908;28;20032;-92
2022/01/02 04:51:25;;;;;;;13.40;8.20;;;;;;;7.54;92.67;98960.63;5017569;28;20032;-92
2022/01/02 04:53:50;;;;;;;16.10;8.10;;;;;;;7.63;92.30;98959.28;5012715;28;20112;-93
2022/01/02 04:56:16;;;;;;;16.08;8.93;;;;;;;7.77;92.21;98983.81;5015732;28;20037;-92
2022/01/02 04:58:42;;;;;;;13.70;8.18;;;;;;;7.36;92.84;98903.06;5010281;28;20021;-92
2022/01/02 05:01:11;;;;;;;17.13;9.43;;;;;;;7.75;92.54;98973.41;5017330;28;20053;-94
2022/01/02 05:03:37;;;;;;;15.75;9.35;;;;;;;6.69;92.00;98798.09;5017145;28;20045;-91
2022/01/02 05:06:02;;;;;;;16.10;9.98;;;;;;;7.05;92.07;98842.28;5017677;28;20052;-93
2022/01/02 05:08:28;;;;;;;15.48;9.85;;;;;;;7.04;92.28;98824.72;5017732;28;20411;-93
2022/01/02 05:10:53;;;;;;;14.07;8.65;;;;;;;7.10;92.02;98839.75;5018223;28;20036;-91
2022/01/02 05:13:18;;;;;;;14.50;8.95;;;;;;;6.60;92.11;98764.94;5013858;28;20486;-92
2022/01/02 05:15:44;;;;;;;17.38;9.38;;;;;;;6.59;92.46;98765.19;4996377;28;20106;-92
2022/01/02 05:18:10;;;;;;;12.65;8.43;;;;;;;7.06;91.78;98843.06;5016534;28;20615;-92
2022/01/02 05:20:35;;;;;;;12.93;8.63;;;;;;;6.93;92.48;98822.03;5017355;28;20036;-92
2022/01/02 05:23:01;;;;;;;13.68;9.00;;;;;;;6.67;92.05;98767.50;5000247;28;20034;-91
2022/01/02 05:25:26;;;;;;;11.80;7.97;;;;;;;6.54;92.39;98739.34;5011449;28;20033;-93
2022/01/02 05:27:51;;;;;;;15.57;9.30;;;;;;;6.81;92.36;98790.19;4997694;28;20029;-93
2022/01/02 05:30:18;;;;;;;15.70;8.55;;;;;;;7.70;92.67;98944.06;5016947;28;20028;-91
2022/01/02 05:32:43;;;;;;;11.85;7.72;;;;;;;7.01;92.22;98822.53;5001088;28;20382;-91
2022/01/02 05:35:08;;;;;;;13.93;8.52;;;;;;;7.67;92.34;98951.66;5016898;28;20025;-91
2022/01/02 05:37:34;;;;;;;11.45;7.70;;;;;;;6.55;91.92;98770.09;5017163;28;20483;-93
2022/01/02 05:39:59;;;;;;;13.68;8.80;;;;;;;7.19;92.34;98880.03;5017195;28;20057;-91
2022/01/02 05:42:24;;;;;;;11.15;8.35;;;;;;;7.69;92.34;98954.91;5000274;28;20360;-92
2022/01/02 05:44:50;;;;;;;11.98;8.30;;;;;;;7.26;92.76;98878.09;5016354;28;20108;-94
2022/01/02 05:47:15;;;;;;;14.85;8.50;;;;;;;7.70;92.12;98940.59;5016225;28;20438;-93
2022/01/02 05:49:41;;;;;;;12.35;7.72;;;;;;;6.72;91.86;98788.88;5017148;28;20021;-93
2022/01/02 05:52:06;;;;;;;16.35;9.05;;;;;;;6.59;91.96;98767.84;5016588;28;20038;-91
2022/01/02 05:54:32;;;;;;;14.40;8.30;;;;;;;6.50;91.93;98742.66;4997414;28;20038;-93
2022/01/02 05:56:57;;;;;;;16.23;8.70;;;;;;;6.95;92.07;98812.81;5014304;28;20170;-93
2022/01/02 05:59:24;;;;;;;12.88;8.38;;;;;;;6.62;92.30;98752.28;5016041;28;20053;-90
2022/01/02 06:01:50;;;;;;;14.75;9.00;;;;;;;6.77;91.97;98781.06;5015600;28;20029;-91
2022/01/02 06:04:15;;;;;;;11.50;8.50;;;;;;;6.52;92.48;98759.97;5008485;28;20033;-92
2022/01/02 06:06:40;;;;;;;15.30;8.80;;;;;;;7.10;92.22;98850.34;5016133;28;20461;-92
2022/01/02 06:09:06;;;;;;;12.68;8.20;;;;;;;7.45;92.38;98919.50;5015901;28;20025;-92
2022/01/02 06:11:31;;;;;;;11.75;7.43;;;;;;;7.06;92.68;98851.84;4999804;28;20120;-90
2022/01/02 06:13:56;;;;;;;12.77;8.73;;;;;;;7.00;92.29;98826.22;5012673;28;20028;-91
2022/01/02 06:16:22;;;;;;;13.27;8.13;;;;;;;6.76;92.27;98776.78;5016049;28;20052;-93
2022/01/02 06:18:47;;;;;;;12.75;8.65;;;;;;;7.48;92.21;98892.50;5015291;28;20053;-93
2022/01/02 06:21:13;;;;;;;12.65;8.45;;;;;;;6.88;92.67;98801.47;4996097;28;20053;-93
2022/01/02 06:23:38;;;;;;;13.27;9.52;;;;;;;6.66;92.43;98750.78;5015317;28;20490;-91
2022/01/02 06:26:03;;;;;;;14.73;9.02;;;;;;;7.62;92.19;98901.88;4995555;28;20521;-93
2022/01/02 06:28:29;;;;;;;12.50;7.78;;;;;;;7.10;92.26;98828.34;5017462;28;20540;-94
2022/01/02 06:30:54;;;;;;;12.93;8.85;;;;;;;7.05;92.02;98823.72;5017563;28;20029;-95
2022/01/02 06:33:20;;;;;;;11.68;8.30;;;;;;;6.54;91.94;98722.63;5018897;28;20510;-91
2022/01/02 06:35:45;;;;;;;17.48;8.65;;;;;;;7.52;92.19;98878.53;5020167;28;20079;-93
2022/01/02 06:38:18;;;;;;;11.70;7.95;;;;;;;7.11;91.84;98819.31;5015800;28;20079;-93
2022/01/02 06:40:43;;;;;;;14.32;8.40;;;;;;;6.64;92.25;98734.28;5016205;28;20120;-93
2022/01/02 06:43:13;;;;;;;12.18;8.85;;;;;;;6.79;92.12;98760.41;5016147;28;20060;-93
2022/01/02 06:45:39;;;;;;;11.85;8.20;;;;;;;7.55;91.92;98869.31;5016357;28;20033;-92
2022/01/02 06:48:05;;;;;;;12.95;7.40;;;;;;;7.39;92.39;98849.53;5009048;28;20033;-92
2022/01/02 06:50:39;;;;;;;13.45;8.90;;;;;;;7.25;92.22;98813.59;5011891;28;20032;-93
2022/01/02 06:53:05;;;;;;;12.77;8.05;;;;;;;6.65;92.40;98725.31;5027315;28;20500;-92
2022/01/02 06:55:33;;;;;;;11.93;8.32;;;;;;;7.40;92.35;98837.84;4991482;28;20049;-94
2022/01/02 06:58:03;;;;;;;17.52;8.68;;;;;;;7.62;92.75;98866.53;5009512;28;20028;-93
2022/01/02 07:00:28;;;;;;;12.15;7.75;;;;;;;7.26;92.40;98812.56;5015329;28;20470;-92
2022/01/02 07:02:53;;;;;;;12.10;7.95;;;;;;;7.83;92.97;98898.69;5014833;28;20117;-91
2022/01/02 07:05:22;;;;;;;11.98;7.72;;;;;;;6.91;92.11;98733.91;5015629;28;20075;-92
2022/01/02 07:07:47;;;;;;;14.63;9.15;;;;;;;7.39;92.45;98825.63;5015392;28;20017;-95
2022/01/02 07:10:15;;;;;;;15.43;8.88;;;;;;;6.55;92.08;98690.56;5015386;28;20066;-93
2022/01/02 07:12:40;;;;;;;11.50;7.40;;;;;;;7.21;92.95;98783.22;5016544;28;20024;-93
2022/01/02 07:15:21;;;;;;;16.40;9.45;;;;;;;7.63;92.85;98858.34;5019031;28;20026;-92
2022/01/02 07:18:15;;;;;;;13.52;9.13;;;;;;;7.64;92.90;98864.47;5019721;28;20037;-93
2022/01/02 07:21:06;;;;;;;13.95;8.50;;;;;;;6.92;92.40;98728.38;5032569;28;20048;-93
2022/01/02 07:23:53;;;;;;;14.57;8.95;;;;;;;6.74;93.31;98710.69;5009123;28;20029;-92
2022/01/02 07:26:37;;;;;;;11.13;8.55;;;;;;;6.77;92.83;98696.97;5010267;28;20076;-93
2022/01/02 07:29:15;;;;;;;;;;;;;;;;;;;;;
2022/01/02 09:32:40;;;;;;;12.77;8.27;;;;;;;8.04;94.19;98709.41;5050536;28;20406;-87
2022/01/02 09:35:08;;;;;;;16.50;9.07;;;;;;;8.17;94.89;98710.97;5036931;28;20036;-87
2022/01/02 09:37:34;;;;;;;11.85;7.78;;;;;;;7.85;94.43;98648.69;5036929;28;20024;-87
2022/01/02 09:40:04;;;;;;;11.50;8.68;;;;;;;8.21;94.81;98696.97;5014813;28;20010;-87
2022/01/02 09:42:31;;;;;;;8.52;6.90;;;;;;;8.23;94.30;98699.41;5016828;28;20056;-86
2022/01/02 09:44:57;;;;;;;14.60;7.75;;;;;;;8.15;94.58;98673.19;5010754;28;20032;-87
2022/01/02 09:47:22;;;;;;;10.40;7.20;;;;;;;8.24;94.19;98687.72;4995650;28;20436;-86
2022/01/02 09:49:49;;;;;;;11.52;6.53;;;;;;;8.30;94.25;98684.97;5027770;28;20277;-87
2022/01/02 09:52:15;;;;;;;12.73;6.88;;;;;;;8.32;94.63;98678.59;5022091;28;20386;-86
2022/01/02 09:54:40;;;;;;;11.25;6.22;;;;;;;8.04;94.26;98634.97;5038274;28;20031;-87
2022/01/02 09:57:06;;;;;;;9.20;6.18;;;;;;;8.30;93.82;98679.63;5005299;28;20433;-86
2022/01/02 09:59:31;;;;;;;9.43;6.22;;;;;;;8.23;94.65;98664.84;5016727;28;20025;-87
2022/01/02 10:01:59;;;;;;;14.73;6.85;;;;;;;8.32;94.46;98677.53;5021398;28;20033;-87
2022/01/02 10:04:39;;;;;;;13.00;6.70;;;;;;;8.32;93.89;98664.25;5005895;28;20040;-87
2022/01/02 10:07:06;;;;;;;11.35;6.68;;;;;;;8.33;94.35;98654.44;5035261;28;20106;-86
2022/01/02 10:09:34;;;;;;;11.55;8.05;;;;;;;8.32;94.27;98640.31;5035917;28;20517;-86
2022/01/02 10:12:29;;;;;;;15.80;8.00;;;;;;;8.32;94.36;98644.03;5006612;28;20095;-86
2022/01/02 10:15:20;;;;;;;10.95;8.20;;;;;;;8.26;94.61;98638.63;5031281;28;20052;-87
2022/01/02 10:18:09;;;;;;;14.00;7.07;;;;;;;8.25;94.44;98644.16;5035660;28;20029;-87
2022/01/02 10:20:39;;;;;;;10.20;6.80;;;;;;;8.28;94.27;98638.38;5004379;28;20033;-85
2022/01/02 10:23:24;;;;;;;9.27;6.03;;;;;;;8.21;94.25;98616.44;5034141;28;20025;-90
2022/01/02 10:26:04;;;;;;;9.85;5.10;;;;;;;8.00;93.70;98571.91;5038240;28;20032;-90
2022/01/02 10:28:32;;;;;;;12.73;6.20;;;;;;;8.36;93.91;98584.00;5023678;28;20282;-89
2022/01/02 10:31:00;;;;;;;7.22;5.53;;;;;;;8.35;93.80;98567.25;5037934;28;20029;-92
2022/01/02 10:33:28;;;;;;;9.63;5.10;;;;;;;8.19;93.71;98542.22;5039427;28;20036;-88
2022/01/02 10:35:58;;;;;;;11.77;4.63;;;;;;;8.36;93.35;98565.41;5038676;28;20504;-89
2022/01/02 10:38:28;;;;;;;11.70;5.70;;;;;;;8.06;93.51;98499.22;5039185;28;20584;-90
2022/01/02 10:40:56;;;;;;;11.45;5.45;;;;;;;7.92;93.31;98466.84;5022012;28;20029;-89
2022/01/02 10:43:26;;;;;;;14.40;6.40;;;;;;;8.39;93.27;98527.69;5032237;28;20025;-85
2022/01/02 10:45:53;;;;;;;11.38;5.28;;;;;;;8.44;93.41;98520.59;5037487;28;20037;-84
2022/01/02 10:48:34;;;;;;;10.32;5.32;;;;;;;8.49;93.54;98517.22;5038327;28;20021;-87
2022/01/02 10:51:11;;;;;;;9.18;5.93;;;;;;;8.50;93.71;98519.63;5038320;28;20025;-87
2022/01/02 10:53:51;;;;;;;10.10;5.70;;;;;;;8.50;93.37;98510.81;5038085;28;20063;-87
2022/01/02 10:56:20;;;;;;;10.65;5.72;;;;;;;8.50;93.95;98516.97;5037680;28;20025;-87
2022/01/02 10:58:46;;;;;;;10.57;5.28;;;;;;;8.24;94.34;98472.38;5037475;28;20021;-86
2022/01/02 11:01:14;;;;;;;11.02;5.85;;;;;;;8.52;93.77;98501.56;5039599;28;20100;-88
2022/01/02 11:03:44;;;;;;;10.05;5.95;;;;;;;8.55;94.33;98516.22;5018368;28;20500;-85
2022/01/02 11:06:13;;;;;;;13.95;5.18;;;;;;;8.57;94.29;98517.59;5013525;28;20024;-88
2022/01/02 11:08:43;;;;;;;8.35;5.68;;;;;;;8.17;93.90;98451.28;5037779;28;20031;-89
2022/01/02 11:11:09;;;;;;;9.30;5.35;;;;;;;8.48;93.48;98483.66;5021308;28;20033;-88
2022/01/02 11:13:35;;;;;;;10.98;5.65;;;;;;;8.59;93.99;98491.56;5037911;28;20040;-88
2022/01/02 11:16:05;;;;;;;10.02;5.53;;;;;;;8.53;93.97;98481.91;5021282;28;20025;-88
2022/01/02 11:18:32;;;;;;;8.65;4.88;;;;;;;8.60;93.58;98473.75;5037726;28;20029;-88
2022/01/02 11:20:59;;;;;;;7.55;5.57;;;;;;;8.61;93.11;98454.88;5021677;28;20029;-87
2022/01/02 11:23:31;;;;;;;9.98;5.57;;;;;;;8.34;93.22;98415.94;5037636;28;20029;-87
2022/01/02 11:26:15;;;;;;;11.07;6.20;;;;;;;8.62;93.35;98440.53;5037801;28;20059;-88
2022/01/02 11:28:46;;;;;;;9.32;5.68;;;;;;;8.64;93.64;98437.63;5017369;28;20071;-88
2022/01/02 11:31:27;;;;;;;8.55;5.25;;;;;;;8.63;93.30;98436.00;5030292;28;20027;-88
2022/01/02 11:33:52;;;;;;;7.20;5.15;;;;;;;8.48;93.43;98393.25;5038088;28;20017;-88
2022/01/02 11:36:24;;;;;;;10.00;5.53;;;;;;;8.65;92.79;98429.41;5021571;28;20033;-88
2022/01/02 11:39:16;;;;;;;8.60;5.55;;;;;;;8.66;93.22;98435.53;5036118;28;20021;-88
2022/01/02 11:41:50;;;;;;;8.80;5.53;;;;;;;8.68;92.81;98404.16;5035740;28;20041;-89
2022/01/02 11:44:21;;;;;;;12.18;4.95;;;;;;;8.69;92.44;98411.88;5043404;28;20124;-88
2022/01/02 11:46:52;;;;;;;9.98;5.80;;;;;;;8.69;92.73;98403.91;5027148;28;20020;-88
2022/01/02 11:49:19;;;;;;;7.85;5.03;;;;;;;8.70;92.18;98394.88;5044064;28;20103;-88
2022/01/02 11:51:50;;;;;;;14.82;5.65;;;;;;;8.68;92.08;98410.28;5043357;28;20033;-88
2022/01/02 11:54:28;;;;;;;10.57;5.57;;;;;;;8.67;92.70;98419.31;5044489;28;20074;-88
2022/01/02 11:56:59;;;;;;;10.20;5.68;;;;;;;8.55;92.57;98380.56;5042601;28;20047;-88
2022/01/02 11:59:39;;;;;;;8.32;5.70;;;;;;;8.62;92.93;98383.88;5024936;28;20060;-87
2022/01/02 12:02:18;;;;;;;8.60;5.50;;;;;;;8.65;92.29;98376.19;5042896;28;20025;-89
2022/01/02 12:05:12;;;;;;;10.70;5.45;;;;;;;8.65;92.42;98368.22;5043361;28;20041;-87
2022/01/02 12:07:58;;;;;;;9.10;4.97;;;;;;;8.64;92.42;98379.91;5043825;28;20036;-87
2022/01/02 12:10:30;;;;;;;10.25;5.18;;;;;;;8.66;92.72;98372.50;5040538;28;20056;-88
2022/01/02 12:12:56;;;;;;;12.25;6.07;;;;;;;8.67;92.46;98358.13;5042858;28;20025;-87
2022/01/02 12:15:42;;;;;;;6.78;4.53;;;;;;;8.66;93.15;98353.88;5042255;28;20400;-88
2022/01/02 12:18:13;;;;;;;9.77;5.05;;;;;;;8.68;93.02;98385.53;5041907;28;20485;-88
2022/01/02 12:20:53;;;;;;;5.45;4.18;;;;;;;8.65;92.27;98389.50;5036383;28;20029;-88
2022/01/02 12:23:30;;;;;;;12.90;5.20;;;;;;;8.67;92.68;98383.94;5034883;28;20108;-88
2022/01/02 12:26:10;;;;;;;8.93;5.25;;;;;;;8.64;92.58;98350.66;5039089;28;20052;-87
2022/01/02 12:28:57;;;;;;;5.25;4.13;;;;;;;8.67;92.09;98344.81;5041309;28;20025;-89
2022/01/02 12:31:44;;;;;;;12.23;5.47;;;;;;;8.65;91.75;98346.16;5028075;28;20025;-88
2022/01/02 12:34:20;;;;;;;8.10;5.85;;;;;;;8.60;91.21;98330.94;5027841;28;20389;-89
2022/01/02 12:36:50;;;;;;;5.90;4.85;;;;;;;8.59;90.69;98334.63;5024082;28;20059;-88
2022/01/02 12:39:27;;;;;;;8.60;6.38;;;;;;;8.35;90.96;98274.75;5042081;28;20037;-88
2022/01/02 12:41:53;;;;;;;16.27;8.68;;;;;;;8.57;89.75;98302.16;5015169;28;20059;-88
2022/01/02 12:44:26;;;;;;;12.88;8.77;;;;;;;8.63;90.14;98309.13;5025994;28;20477;-88
2022/01/02 12:46:59;;;;;;;13.23;9.27;;;;;;;8.58;89.19;98289.66;5026286;28;20028;-87
2022/01/02 12:49:28;;;;;;;11.80;8.48;;;;;;;8.68;89.52;98303.88;5042148;28;20039;-89
2022/01/02 12:51:56;;;;;;;17.13;10.57;;;;;;;8.73;88.61;98297.81;5021990;28;20043;-89
2022/01/02 12:54:24;;;;;;;13.10;7.97;;;;;;;8.75;88.48;98309.81;5035721;28;20025;-90
2022/01/02 12:57:02;;;;;;;11.98;7.43;;;;;;;8.77;88.95;98318.34;5040615;28;20482;-90
2022/01/02 12:59:34;;;;;;;8.43;6.63;;;;;;;8.82;88.20;98312.28;5040228;28;20021;-90
2022/01/02 13:02:04;;;;;;;9.90;6.22;;;;;;;8.85;88.25;98301.94;5023143;28;20025;-89
2022/01/02 13:04:36;;;;;;;8.02;5.70;;;;;;;8.87;88.22;98313.13;5038344;28;20386;-88
2022/01/02 13:07:12;;;;;;;11.65;6.53;;;;;;;8.86;88.65;98298.22;5023502;28;20033;-88
2022/01/02 13:09:40;;;;;;;;;;;;;;;8.94;88.86;98307.59;5034668;28;20045;-88
2022/01/02 13:12:20;;;;;;;6.97;5.35;;;;;;;8.94;88.50;98308.41;5024817;28;20262;-88
2022/01/02 13:14:48;;;;;;;9.32;5.60;;;;;;;8.98;88.33;98322.81;5016900;28;20588;-85
2022/01/02 13:17:22;;;;;;;10.98;6.00;;;;;;;8.96;88.36;98340.91;5072048;23;20032;-88
2022/01/02 13:19:58;;;;;;;11.60;6.07;;;;;;;8.97;87.83;98339.06;5054484;28;20072;-87
2022/01/02 13:22:26;;;;;;;8.07;6.15;;;;;;;8.85;87.49;98331.19;5020974;28;20036;-84
2022/01/02 13:24:56;;;;;;;8.55;6.53;;;;;;;8.94;86.83;98339.53;5018819;28;20033;-84
2022/01/02 13:27:23;;;;;;;9.73;6.28;;;;;;;8.94;87.35;98324.38;5035186;28;20018;-86
2022/01/02 13:30:00;;;;;;;11.90;5.78;;;;;;;8.94;86.36;98343.00;5015650;28;20500;-87
2022/01/02 13:32:27;;;;;;;11.43;6.68;;;;;;;8.95;86.87;98336.63;5016901;28;20032;-86
2022/01/02 13:35:06;;;;;;;11.30;7.38;;;;;;;8.95;86.21;98346.47;5019947;28;20064;-86
2022/01/02 13:37:38;;;;;;;9.20;6.68;;;;;;;8.96;87.09;98345.41;5016948;28;20644;-88
2022/01/02 19:45:26;;;;;;;9.02;4.97;;;;;;;7.83;90.72;98337.28;4971824;28;20050;-87
2022/01/02 19:47:53;;;;;;;8.63;4.93;;;;;;;7.85;90.36;98351.13;4956269;28;20035;-87
2022/01/02 19:50:20;;;;;;;9.50;4.60;;;;;;;7.86;89.77;98350.91;4957488;28;20054;-86
2022/01/02 19:52:45;;;;;;;10.00;4.95;;;;;;;7.87;90.82;98346.38;4961597;28;20030;-89
2022/01/02 19:55:14;;;;;;;5.35;4.53;;;;;;;7.87;90.02;98354.34;4974685;28;20031;-88
2022/01/02 19:57:39;;;;;;;6.18;4.13;;;;;;;7.90;89.74;98348.53;4972328;28;20027;-87
2022/01/02 20:00:10;;;;;;;8.63;4.50;;;;;;;7.90;90.12;98337.91;4966754;28;20041;-87
2022/01/02 20:02:36;;;;;;;5.32;4.72;;;;;;;7.91;89.98;98336.84;4977947;28;20033;-87